createdAt,value
2022-12-20T00:00:27.431Z,100335.34
2022-12-20T00:02:29.519Z,100332.81
2022-12-20T00:04:31.627Z,100337.06
2022-12-20T00:06:36.314Z,100325.00
2022-12-20T00:08:39.307Z,100324.94
2022-12-20T00:10:44.207Z,100339.63
2022-12-20T00:12:46.199Z,100315.47
2022-12-20T00:14:48.146Z,100335.28
2022-12-20T00:16:50.726Z,100335.28
2022-12-20T00:18:55.083Z,100336.03
2022-12-20T00:21:00.787Z,100334.38
2022-12-20T00:23:03.163Z,100306.00
2022-12-20T00:25:06.210Z,100314.63
2022-12-20T00:27:08.141Z,100318.94
2022-12-20T00:29:10.173Z,100313.78
2022-12-20T00:31:14.451Z,100313.75
2022-12-20T00:33:16.471Z,100315.44
2022-12-20T00:35:18.587Z,100306.06
2022-12-20T00:37:20.524Z,100298.28
2022-12-20T00:39:22.461Z,100300.84
2022-12-20T00:41:27.970Z,100320.69
2022-12-20T00:43:30.860Z,100304.28
2022-12-20T00:45:32.768Z,100300.84
2022-12-20T00:47:35.267Z,100293.09
2022-12-20T00:49:37.164Z,100294.81
2022-12-20T00:51:39.243Z,100294.78
2022-12-20T00:53:41.893Z,100293.91
2022-12-20T00:55:46.134Z,100288.72
2022-12-20T00:57:48.273Z,100293.91
2022-12-20T00:59:50.198Z,100298.22
2022-12-20T01:01:52.344Z,100295.63
2022-12-20T01:03:54.906Z,100288.75
2022-12-20T01:06:00.831Z,100294.75
2022-12-20T01:08:02.879Z,100292.16
2022-12-20T01:10:05.150Z,100286.97
2022-12-20T01:12:07.467Z,100293.88
2022-12-20T01:14:14.972Z,100303.34
2022-12-20T01:16:20.491Z,100283.53
2022-12-20T01:18:22.875Z,100292.19
2022-12-20T01:20:25.074Z,100290.47
2022-12-20T01:22:27.010Z,100279.28
2022-12-20T01:24:28.977Z,100297.31
2022-12-20T01:26:30.943Z,100275.00
2022-12-20T01:28:33.240Z,100285.31
2022-12-20T01:30:35.131Z,100283.59
2022-12-20T01:32:37.090Z,100299.13
2022-12-20T01:34:39.119Z,100288.75
2022-12-20T01:36:41.096Z,100292.19
2022-12-20T01:38:43.331Z,100280.19
2022-12-20T01:40:45.829Z,100279.28
2022-12-20T01:42:47.727Z,100288.78
2022-12-20T01:44:55.187Z,100281.06
2022-12-20T01:46:57.063Z,100284.50
2022-12-20T01:49:02.632Z,100280.19
2022-12-20T01:51:05.110Z,100274.16
2022-12-20T01:53:07.169Z,100274.22
2022-12-20T01:55:15.345Z,100274.22
2022-12-20T01:57:23.847Z,100277.69
2022-12-20T01:59:27.384Z,100267.31
2022-12-20T02:01:29.407Z,100266.47
2022-12-20T02:03:33.867Z,100254.41
2022-12-20T02:05:39.973Z,100268.97
2022-12-20T02:07:44.197Z,100246.63
2022-12-20T02:09:46.826Z,100259.53
2022-12-20T02:11:58.444Z,100258.69
2022-12-20T02:14:06.542Z,100254.41
2022-12-20T02:16:08.669Z,100266.44
2022-12-20T02:18:16.858Z,100263.84
2022-12-20T02:20:22.296Z,100273.34
2022-12-20T02:22:27.682Z,100263.88
2022-12-20T02:24:34.178Z,100259.56
2022-12-20T02:26:39.728Z,100245.78
2022-12-20T02:28:47.987Z,100252.69
2022-12-20T02:30:55.125Z,100257.03
2022-12-20T02:33:03.422Z,100255.25
2022-12-20T02:35:08.103Z,100252.72
2022-12-20T02:37:10.757Z,100259.56
2022-12-20T02:39:16.495Z,100249.22
2022-12-20T02:41:27.486Z,100243.19
2022-12-20T02:43:35.320Z,100237.19
2022-12-20T02:45:38.157Z,100245.78
2022-12-20T02:47:43.699Z,100232.03
2022-12-20T02:49:47.695Z,100241.53
2022-12-20T02:51:52.225Z,100243.22
2022-12-20T02:53:54.346Z,100234.63
2022-12-20T02:56:05.793Z,100234.66
2022-12-20T02:58:18.624Z,100222.59
2022-12-20T03:00:23.464Z,100219.16
2022-12-20T03:02:26.205Z,100207.16
2022-12-20T03:04:30.720Z,100222.63
2022-12-20T03:06:32.631Z,100226.03
2022-12-20T03:08:34.513Z,100220.00
2022-12-20T03:10:36.453Z,100233.75
2022-12-20T03:12:38.484Z,100222.56
2022-12-20T03:14:40.874Z,100250.97
2022-12-20T03:16:42.943Z,100203.59
2022-12-20T03:18:46.279Z,100202.72
2022-12-20T03:20:48.867Z,100206.16
2022-12-20T03:22:50.916Z,100214.81
2022-12-20T03:24:53.049Z,100207.00
2022-12-20T03:26:55.047Z,100191.53
2022-12-20T03:28:57.056Z,100200.13
2022-12-20T03:30:59.190Z,100188.09
2022-12-20T03:33:01.188Z,100190.69
2022-12-20T03:35:03.170Z,100184.66
2022-12-20T03:37:05.098Z,100190.66
2022-12-20T03:39:06.959Z,100189.81
2022-12-20T03:41:08.920Z,100189.81
2022-12-20T03:43:10.863Z,100188.94
2022-12-20T03:45:13.099Z,100179.50
2022-12-20T03:47:15.032Z,100186.38
2022-12-20T03:49:17.190Z,100192.41
2022-12-20T03:51:19.619Z,100184.66
2022-12-20T03:53:21.667Z,100177.78
2022-12-20T03:55:24.113Z,100186.34
2022-12-20T03:57:26.070Z,100172.59
2022-12-20T03:59:27.979Z,100166.56
2022-12-20T04:01:30.773Z,100183.75
2022-12-20T04:03:32.877Z,100171.72
2022-12-20T04:05:34.916Z,100164.00
2022-12-20T04:07:36.820Z,100162.28
2022-12-20T04:09:38.830Z,100165.72
2022-12-20T04:11:40.824Z,100158.00
2022-12-20T04:13:48.051Z,100159.72
2022-12-20T04:15:53.028Z,100165.72
2022-12-20T04:17:57.289Z,100159.69
2022-12-20T04:19:59.222Z,100172.63
2022-12-20T04:22:05.677Z,100171.72
2022-12-20T04:24:08.526Z,100168.28
2022-12-20T04:26:11.426Z,100174.31
2022-12-20T04:28:13.543Z,100167.38
2022-12-20T04:30:15.609Z,100155.34
2022-12-20T04:32:17.531Z,100162.25
2022-12-20T04:34:19.513Z,100170.81
2022-12-20T04:36:21.944Z,100157.09
2022-12-20T04:38:24.172Z,100175.13
2022-12-20T04:40:26.148Z,100151.06
2022-12-20T04:42:28.100Z,100145.88
2022-12-20T04:44:30.059Z,100146.75
2022-12-20T04:46:32.107Z,100142.41
2022-12-20T04:48:55.618Z,100148.44
2022-12-20T04:50:56.916Z,100145.84
2022-12-20T04:53:01.949Z,100139.81
2022-12-20T04:55:04.092Z,100146.66
2022-12-20T04:57:06.045Z,100132.97
2022-12-20T04:59:07.961Z,100119.19
2022-12-20T05:01:30.210Z,100118.28
2022-12-20T05:03:32.245Z,100136.34
2022-12-20T05:07:51.247Z,100130.34
2022-12-20T05:09:53.161Z,100132.94
2022-12-20T05:11:55.050Z,100128.59
2022-12-20T05:13:57.446Z,100123.44
2022-12-20T05:15:59.673Z,100130.34
2022-12-20T05:18:02.189Z,100138.94
2022-12-20T05:20:05.539Z,100148.44
2022-12-20T05:22:10.501Z,100146.69
2022-12-20T05:24:15.626Z,100130.41
2022-12-20T05:26:17.698Z,100138.13
2022-12-20T05:28:19.660Z,100143.28
2022-12-20T05:30:22.127Z,100146.72
2022-12-20T05:32:24.077Z,100139.84
2022-12-20T05:34:26.070Z,100138.16
2022-12-20T05:36:28.512Z,100132.97
2022-12-20T05:38:30.456Z,100165.66
2022-12-20T05:40:32.348Z,100128.66
2022-12-20T05:42:34.766Z,100132.13
2022-12-20T05:44:36.955Z,100144.97
2022-12-20T05:46:38.895Z,100157.06
2022-12-20T05:48:40.959Z,100144.13
2022-12-20T05:50:44.543Z,100145.00
2022-12-20T05:52:46.549Z,100120.91
2022-12-20T05:54:48.584Z,100142.41
2022-12-20T05:56:50.535Z,100138.09
2022-12-20T05:58:52.671Z,100143.28
2022-12-20T06:00:54.603Z,100176.84
2022-12-20T06:02:56.645Z,100140.72
2022-12-20T06:04:59.472Z,100146.72
2022-12-20T06:07:01.529Z,100164.78
2022-12-20T06:09:03.670Z,100164.75
2022-12-20T06:11:07.184Z,100166.47
2022-12-20T06:13:09.858Z,100153.59
2022-12-20T06:15:11.979Z,100164.78
2022-12-20T06:17:13.905Z,100169.97
2022-12-20T06:19:21.088Z,100171.69
2022-12-20T06:21:23.655Z,100179.41
2022-12-20T06:23:25.922Z,100188.00
2022-12-20T06:25:28.283Z,100177.66
2022-12-20T06:27:30.283Z,100203.50
2022-12-20T06:29:32.211Z,100181.97
2022-12-20T06:31:34.384Z,100210.41
2022-12-20T06:33:37.239Z,100212.16
2022-12-20T06:35:39.190Z,100233.63
2022-12-20T06:37:42.053Z,100228.50
2022-12-20T06:39:44.110Z,100231.09
2022-12-20T06:41:46.019Z,100239.78
2022-12-20T06:43:48.029Z,100253.50
2022-12-20T06:45:50.310Z,100256.94
2022-12-20T06:47:52.283Z,100268.19
2022-12-20T06:49:54.248Z,100275.88
2022-12-20T06:51:56.250Z,100283.59
2022-12-20T06:53:58.128Z,100281.00
2022-12-20T06:56:00.099Z,100280.09
2022-12-20T06:58:03.530Z,100280.91
2022-12-20T07:00:06.311Z,100292.16
2022-12-20T07:02:12.000Z,100292.94
2022-12-20T07:04:33.931Z,100296.38
2022-12-20T07:08:51.511Z,100310.09
2022-12-20T07:10:54.668Z,100326.38
2022-12-20T07:12:56.919Z,100327.16
2022-12-20T07:14:58.947Z,100326.38
2022-12-20T07:17:00.958Z,100331.53
2022-12-20T07:19:03.445Z,100340.13
2022-12-20T07:21:06.653Z,100336.69
2022-12-20T07:23:08.735Z,100342.72
2022-12-20T07:25:11.550Z,100352.97
2022-12-20T07:27:14.022Z,100352.91
2022-12-20T07:29:16.372Z,100352.03
2022-12-20T07:31:18.581Z,100360.63
2022-12-20T07:33:21.799Z,100363.25
2022-12-20T07:35:23.845Z,100374.34
2022-12-20T07:37:49.473Z,100369.97
2022-12-20T07:39:51.606Z,100378.50
2022-12-20T07:41:55.641Z,100382.88
2022-12-20T07:43:59.591Z,100382.88
2022-12-20T07:46:02.909Z,100381.16
2022-12-20T07:48:11.323Z,100379.44
2022-12-20T07:50:17.440Z,100380.22
2022-12-20T07:52:23.634Z,100385.31
2022-12-20T07:54:32.045Z,100387.09
2022-12-20T07:56:41.116Z,100387.16
2022-12-20T07:58:45.013Z,100394.72
2022-12-20T08:00:47.040Z,100411.00
2022-12-20T08:02:54.262Z,100414.38
2022-12-20T08:04:57.019Z,100417.00
2022-12-20T08:07:01.546Z,100417.00
2022-12-20T08:09:05.972Z,100418.63
2022-12-20T08:11:10.567Z,100425.53
2022-12-20T08:13:13.366Z,100425.41
2022-12-20T08:15:15.738Z,100436.56
2022-12-20T08:17:17.766Z,100444.28
2022-12-20T08:19:19.925Z,100452.81
2022-12-20T08:21:22.030Z,100462.22
2022-12-20T08:23:24.072Z,100470.72
2022-12-20T08:25:26.271Z,100468.19
2022-12-20T08:27:28.432Z,100474.06
2022-12-20T08:29:30.411Z,100462.75
2022-12-20T08:31:32.515Z,100471.44
2022-12-20T08:33:37.720Z,100474.94
2022-12-20T08:35:39.833Z,100484.31
2022-12-20T08:37:42.082Z,100494.59
2022-12-20T08:39:44.355Z,100489.25
2022-12-20T08:41:46.438Z,100490.28
2022-12-20T08:43:48.459Z,100504.03
2022-12-20T08:45:55.351Z,100504.13
2022-12-20T08:47:57.585Z,100498.91
2022-12-20T08:49:59.609Z,100511.78
2022-12-20T08:52:01.883Z,100516.84
2022-12-20T08:54:03.949Z,100519.22
2022-12-20T08:56:09.491Z,100529.50
2022-12-20T08:58:12.385Z,100523.47
2022-12-20T09:00:15.307Z,100515.78
2022-12-20T09:02:17.534Z,100523.56
2022-12-20T09:04:19.690Z,100523.47
2022-12-20T09:06:23.503Z,100534.63
2022-12-20T09:08:25.541Z,100537.06
2022-12-20T09:10:27.706Z,100530.28
2022-12-20T09:12:29.647Z,100520.94
2022-12-20T09:14:32.527Z,100539.03
2022-12-20T09:16:34.593Z,100543.19
2022-12-20T09:18:37.360Z,100550.81
2022-12-20T09:20:44.113Z,100563.69
2022-12-20T09:22:46.228Z,100571.31
2022-12-20T09:24:49.349Z,100582.31
2022-12-20T09:26:52.296Z,100581.34
2022-12-20T09:28:54.562Z,100581.53
2022-12-20T09:31:00.556Z,100578.19
2022-12-20T09:33:10.357Z,100570.50
2022-12-20T09:35:16.576Z,100581.63
2022-12-20T09:37:21.466Z,100587.50
2022-12-20T09:39:23.504Z,100593.56
2022-12-20T09:41:30.139Z,100597.03
2022-12-20T09:43:33.240Z,100594.38
2022-12-20T09:45:37.540Z,100597.03
2022-12-20T09:47:39.744Z,100606.50
2022-12-20T09:49:45.918Z,100598.59
2022-12-20T09:51:54.210Z,100602.09
2022-12-20T09:53:59.783Z,100603.66
2022-12-20T09:56:10.784Z,100608.88
2022-12-20T09:58:21.724Z,100606.19
2022-12-20T10:00:24.147Z,100616.34
2022-12-20T10:04:53.999Z,100620.44
2022-12-20T10:06:59.592Z,100621.16
2022-12-20T10:09:05.048Z,100625.69
2022-12-20T10:11:14.804Z,100623.94
2022-12-20T10:13:22.683Z,100622.31
2022-12-20T10:15:33.962Z,100627.59
2022-12-20T10:17:39.599Z,100625.78
2022-12-20T10:19:45.269Z,100635.19
2022-12-20T10:21:53.189Z,100632.66
2022-12-20T10:24:02.090Z,100628.50
2022-12-20T10:26:11.168Z,100632.00
2022-12-20T10:28:16.296Z,100631.25
2022-12-20T10:30:22.941Z,100625.31
2022-12-20T10:32:25.932Z,100622.72
2022-12-20T10:34:31.787Z,100632.19
2022-12-20T10:36:38.997Z,100632.00
2022-12-20T10:38:45.868Z,100630.22
2022-12-20T10:43:42.591Z,100613.91
2022-12-20T10:45:56.942Z,100615.00
2022-12-20T10:48:01.421Z,100611.50
2022-12-20T10:50:14.032Z,100620.78
2022-12-20T10:52:17.723Z,100619.38
2022-12-20T10:54:25.208Z,100614.16
2022-12-20T10:56:30.489Z,100611.75
2022-12-20T10:58:35.781Z,100617.91
2022-12-20T11:00:38.519Z,100612.88
2022-12-20T11:02:42.668Z,100619.75
2022-12-20T11:04:59.150Z,100618.22
2022-12-20T11:07:22.056Z,100612.31
2022-12-20T11:09:29.098Z,100618.44
2022-12-20T11:11:31.110Z,100612.41
2022-12-20T11:13:33.167Z,100615.06
2022-12-20T11:15:37.026Z,100619.28
2022-12-20T11:17:47.603Z,100616.66
2022-12-20T11:19:56.005Z,100614.13
2022-12-20T11:22:08.618Z,100614.09
2022-12-20T11:24:17.655Z,100626.28
2022-12-20T11:26:29.444Z,100624.69
2022-12-20T11:28:34.990Z,100629.84
2022-12-20T11:30:47.460Z,100611.00
2022-12-20T11:33:00.087Z,100622.25
2022-12-20T11:35:06.617Z,100627.28
2022-12-20T11:37:17.677Z,100628.13
2022-12-20T11:39:26.016Z,100635.19
2022-12-20T11:41:29.843Z,100629.28
2022-12-20T11:44:08.186Z,100631.75
2022-12-20T11:46:10.495Z,100638.78
2022-12-20T11:48:31.395Z,100651.69
2022-12-20T11:50:36.241Z,100639.66
2022-12-20T11:52:46.217Z,100644.78
2022-12-20T11:54:57.184Z,100641.31
2022-12-20T11:57:07.702Z,100637.84
2022-12-20T11:59:13.600Z,100630.19
2022-12-20T12:01:19.804Z,100624.19
2022-12-20T12:03:30.828Z,100625.13
2022-12-20T12:05:39.287Z,100627.78
2022-12-20T12:07:44.865Z,100620.84
2022-12-20T12:09:59.155Z,100621.06
2022-12-20T12:12:09.173Z,100627.91
2022-12-20T12:14:17.180Z,100612.38
2022-12-20T12:16:27.013Z,100617.53
2022-12-20T12:18:32.143Z,100622.72
2022-12-20T12:20:40.396Z,100619.44
2022-12-20T12:22:44.617Z,100616.69
2022-12-20T12:24:51.976Z,100612.59
2022-12-20T12:26:54.471Z,100607.59
2022-12-20T12:29:01.900Z,100606.81
2022-12-20T12:31:11.877Z,100595.72
2022-12-20T12:33:25.734Z,100594.84
2022-12-20T12:35:34.075Z,100592.25
2022-12-20T12:37:46.781Z,100588.94
2022-12-20T12:39:55.010Z,100591.59
2022-12-20T12:42:03.315Z,100589.91
2022-12-20T12:44:25.711Z,100596.00
2022-12-20T12:46:33.492Z,100596.97
2022-12-20T12:48:39.042Z,100594.41
2022-12-20T12:50:47.537Z,100591.06
2022-12-20T12:52:54.000Z,100599.59
2022-12-20T12:54:56.245Z,100591.94
2022-12-20T12:57:03.553Z,100609.13
2022-12-20T12:59:07.371Z,100604.06
2022-12-20T13:01:11.537Z,100596.28
2022-12-20T13:03:17.056Z,100596.31
2022-12-20T13:05:26.166Z,100593.75
2022-12-20T13:07:33.183Z,100594.66
2022-12-20T13:09:39.870Z,100592.16
2022-12-20T13:11:46.840Z,100610.28
2022-12-20T13:13:49.921Z,100606.78
2022-12-20T13:15:53.255Z,100600.81
2022-12-20T13:17:58.828Z,100600.69
2022-12-20T13:20:01.611Z,100612.66
2022-12-20T13:22:07.105Z,100603.97
2022-12-20T13:24:15.324Z,100607.41
2022-12-20T13:26:23.707Z,100613.44
2022-12-20T13:28:26.522Z,100617.78
2022-12-20T13:30:29.083Z,100614.31
2022-12-20T13:32:37.767Z,100607.41
2022-12-20T13:34:56.010Z,100613.28
2022-12-20T13:36:59.965Z,100615.91
2022-12-20T13:39:06.316Z,100608.09
2022-12-20T13:41:14.484Z,100602.03
2022-12-20T13:43:26.217Z,100596.97
2022-12-20T13:45:29.007Z,100598.53
2022-12-20T13:47:37.945Z,100599.47
2022-12-20T13:49:43.085Z,100599.47
2022-12-20T13:51:45.149Z,100599.53
2022-12-20T13:54:08.504Z,100603.09
2022-12-20T13:56:36.741Z,100611.63
2022-12-20T13:58:43.940Z,100607.31
2022-12-20T14:00:47.893Z,100613.28
2022-12-20T14:02:50.066Z,100606.47
2022-12-20T14:04:59.636Z,100604.75
2022-12-20T14:07:02.971Z,100617.63
2022-12-20T14:09:05.981Z,100606.53
2022-12-20T14:11:11.143Z,100604.75
2022-12-20T14:13:19.384Z,100601.28
2022-12-20T14:15:23.106Z,100607.31
2022-12-20T14:17:28.734Z,100608.25
2022-12-20T14:19:30.824Z,100603.09
2022-12-20T14:21:40.145Z,100615.94
2022-12-20T14:23:45.784Z,100612.47
2022-12-20T14:25:55.103Z,100615.81
2022-12-20T14:27:58.502Z,100612.38
2022-12-20T14:30:00.748Z,100607.13
2022-12-20T14:32:03.864Z,100610.47
2022-12-20T14:34:14.317Z,100606.94
2022-12-20T14:36:17.226Z,100608.75
2022-12-20T14:38:24.348Z,100613.03
2022-12-20T14:40:27.903Z,100628.50
2022-12-20T14:42:36.003Z,100625.84
2022-12-20T14:44:38.868Z,100633.53
2022-12-20T14:46:49.042Z,100630.22
2022-12-20T14:49:09.023Z,100636.16
2022-12-20T14:51:12.435Z,100631.88
2022-12-20T14:53:20.240Z,100637.00
2022-12-20T14:55:30.550Z,100636.84
2022-12-20T14:57:36.178Z,100649.56
2022-12-20T14:59:38.623Z,100638.47
2022-12-20T15:01:44.257Z,100637.50
2022-12-20T15:03:51.818Z,100636.47
2022-12-20T15:05:58.500Z,100629.75
2022-12-20T15:08:07.471Z,100625.44
2022-12-20T15:10:09.618Z,100626.19
2022-12-20T15:12:11.854Z,100619.25
2022-12-20T15:14:20.062Z,100609.81
2022-12-20T15:16:25.613Z,100608.13
2022-12-20T15:18:27.794Z,100602.88
2022-12-20T15:20:29.780Z,100613.94
2022-12-20T15:22:31.794Z,100615.69
2022-12-20T15:24:33.823Z,100616.50
2022-12-20T15:26:36.719Z,100622.53
2022-12-20T15:28:38.846Z,100621.69
2022-12-20T15:30:41.121Z,100632.94
2022-12-20T15:32:54.627Z,100635.44
2022-12-20T15:34:57.595Z,100620.69
2022-12-20T15:37:00.418Z,100631.00
2022-12-20T15:39:12.401Z,100630.13
2022-12-20T15:41:19.961Z,100642.16
2022-12-20T15:43:24.008Z,100635.31
2022-12-20T15:45:27.540Z,100644.66
2022-12-20T15:47:29.621Z,100638.63
2022-12-20T15:49:32.922Z,100642.84
2022-12-20T15:51:38.140Z,100641.03
2022-12-20T15:53:44.721Z,100643.66
2022-12-20T15:55:47.151Z,100642.00
2022-12-20T15:57:49.297Z,100641.06
2022-12-20T16:00:01.734Z,100635.06
2022-12-20T16:02:18.920Z,100656.38
2022-12-20T16:04:22.366Z,100649.53
2022-12-20T16:06:24.600Z,100656.38
2022-12-20T16:08:26.766Z,100662.38
2022-12-20T16:10:29.007Z,100666.63
2022-12-20T16:12:35.530Z,100665.75
2022-12-20T16:14:37.698Z,100668.25
2022-12-20T16:16:39.757Z,100670.66
2022-12-20T16:18:41.859Z,100681.94
2022-12-20T16:20:44.439Z,100659.59
2022-12-20T16:22:46.534Z,100674.94
2022-12-20T16:24:48.909Z,100678.31
2022-12-20T16:26:51.909Z,100673.19
2022-12-20T16:28:55.846Z,100684.28
2022-12-20T16:30:57.895Z,100680.75
2022-12-20T16:33:00.157Z,100684.09
2022-12-20T16:35:02.245Z,100687.59
2022-12-20T16:37:05.199Z,100690.22
2022-12-20T16:39:07.317Z,100689.25
2022-12-20T16:41:13.086Z,100697.88
2022-12-20T16:43:16.226Z,100700.44
2022-12-20T16:45:21.434Z,100710.59
2022-12-20T16:47:23.591Z,100701.22
2022-12-20T16:49:25.628Z,100702.06
2022-12-20T16:51:32.188Z,100700.34
2022-12-20T16:53:55.051Z,100706.47
2022-12-20T16:55:56.182Z,100700.38
2022-12-20T16:58:00.141Z,100702.16
2022-12-20T17:00:02.850Z,100701.28
2022-12-20T17:02:22.630Z,100700.31
2022-12-20T17:04:26.965Z,100696.03
2022-12-20T17:06:29.591Z,100692.38
2022-12-20T17:10:35.677Z,100697.53
2022-12-20T17:12:37.713Z,100695.78
2022-12-20T17:14:39.668Z,100694.78
2022-12-20T17:16:41.725Z,100691.50
2022-12-20T17:18:46.803Z,100694.03
2022-12-20T17:20:48.843Z,100695.00
2022-12-20T17:22:53.485Z,100697.47
2022-12-20T17:24:55.527Z,100701.63
2022-12-20T17:26:57.814Z,100705.06
2022-12-20T17:29:01.029Z,100709.44
2022-12-20T17:31:08.031Z,100721.50
2022-12-20T17:33:15.170Z,100718.94
2022-12-20T17:35:23.503Z,100719.59
2022-12-20T17:37:25.543Z,100723.91
2022-12-20T17:39:27.618Z,100725.56
2022-12-20T17:41:33.634Z,100721.13
2022-12-20T17:43:36.167Z,100724.75
2022-12-20T17:45:39.073Z,100715.00
2022-12-20T17:47:41.172Z,100726.25
2022-12-20T17:49:43.232Z,100726.09
2022-12-20T17:51:46.071Z,100719.91
2022-12-20T17:53:50.319Z,100723.53
2022-12-20T17:55:52.479Z,100718.38
2022-12-20T18:00:22.973Z,100723.31
2022-12-20T18:02:27.659Z,100728.59
2022-12-20T18:04:29.851Z,100730.31
2022-12-20T18:06:33.024Z,100731.09
2022-12-20T18:08:35.327Z,100735.50
2022-12-20T18:10:37.374Z,100730.22
2022-12-20T18:12:39.680Z,100733.56
2022-12-20T18:14:41.720Z,100727.50
2022-12-20T18:16:43.856Z,100725.63
2022-12-20T18:18:46.613Z,100721.38
2022-12-20T18:20:48.658Z,100728.25
2022-12-20T18:22:50.764Z,100727.44
2022-12-20T18:24:52.769Z,100725.56
2022-12-20T18:26:54.853Z,100726.56
2022-12-20T18:28:59.417Z,100726.69
2022-12-20T18:31:03.020Z,100724.84
2022-12-20T18:33:05.048Z,100722.28
2022-12-20T18:35:08.468Z,100731.00
2022-12-20T18:37:10.940Z,100731.72
2022-12-20T18:39:13.939Z,100732.34
2022-12-20T18:41:20.930Z,100732.28
2022-12-20T18:43:23.021Z,100729.75
2022-12-20T18:45:25.160Z,100734.69
2022-12-20T18:47:27.348Z,100733.13
2022-12-20T18:49:29.835Z,100738.16
2022-12-20T18:51:36.921Z,100737.22
2022-12-20T18:53:41.305Z,100740.63
2022-12-20T18:55:43.360Z,100735.50
2022-12-20T18:57:45.427Z,100739.81
2022-12-20T18:59:47.486Z,100742.31
2022-12-20T19:01:49.716Z,100744.75
2022-12-20T19:03:52.675Z,100747.34
2022-12-20T19:05:56.121Z,100738.59
2022-12-20T19:07:58.175Z,100741.19
2022-12-20T19:10:00.300Z,100736.56
2022-12-20T19:12:02.364Z,100752.91
2022-12-20T19:14:04.426Z,100747.84
2022-12-20T19:16:11.315Z,100751.28
2022-12-20T19:18:14.460Z,100754.56
2022-12-20T19:20:16.819Z,100752.63
2022-12-20T19:22:19.622Z,100760.47
2022-12-20T19:24:21.681Z,100755.09
2022-12-20T19:26:25.837Z,100753.59
2022-12-20T19:28:28.540Z,100755.28
2022-12-20T19:30:30.817Z,100758.72
2022-12-20T19:32:33.167Z,100759.53
2022-12-20T19:34:35.152Z,100759.56
2022-12-20T19:36:40.450Z,100757.91
2022-12-20T19:38:44.320Z,100763.91
2022-12-20T19:40:52.529Z,100767.50
2022-12-20T19:43:14.315Z,100763.97
2022-12-20T19:45:16.353Z,100763.75
2022-12-20T19:47:18.329Z,100767.19
2022-12-20T19:49:40.446Z,100769.84
2022-12-20T19:53:58.977Z,100777.66
2022-12-20T19:56:01.217Z,100778.50
2022-12-20T19:58:03.710Z,100775.34
2022-12-20T20:00:08.918Z,100778.69
2022-12-20T20:02:15.170Z,100778.78
2022-12-20T20:04:17.276Z,100777.91
2022-12-20T20:06:21.034Z,100792.53
2022-12-20T20:08:23.127Z,100775.34
2022-12-20T20:10:25.242Z,100782.94
2022-12-20T20:12:27.579Z,100787.09
2022-12-20T20:14:29.569Z,100788.84
2022-12-20T20:16:31.687Z,100795.34
2022-12-20T20:18:35.639Z,100789.47
2022-12-20T20:20:40.885Z,100794.69
2022-12-20T20:22:42.918Z,100780.13
2022-12-20T20:24:45.338Z,100787.84
2022-12-20T20:26:47.408Z,100799.09
2022-12-20T20:28:49.803Z,100794.69
2022-12-20T20:30:54.474Z,100793.91
2022-12-20T20:32:56.683Z,100792.22
2022-12-20T20:34:58.726Z,100792.00
2022-12-20T20:37:01.244Z,100790.31
2022-12-20T20:39:03.361Z,100797.03
2022-12-20T20:41:05.696Z,100792.19
2022-12-20T20:43:08.243Z,100795.56
2022-12-20T20:45:11.083Z,100794.84
2022-12-20T20:47:13.123Z,100800.84
2022-12-20T20:49:15.216Z,100800.84
2022-12-20T20:51:17.362Z,100795.59
2022-12-20T20:53:19.449Z,100802.47
2022-12-20T20:55:21.479Z,100807.41
2022-12-20T20:57:23.517Z,100810.13
2022-12-20T20:59:25.579Z,100803.78
2022-12-20T21:01:27.679Z,100807.28
2022-12-20T21:03:31.486Z,100812.22
2022-12-20T21:07:55.657Z,100814.19
2022-12-20T21:09:57.633Z,100811.59
2022-12-20T21:11:59.820Z,100812.31
2022-12-20T21:14:01.912Z,100808.91
2022-12-20T21:16:08.479Z,100811.50
2022-12-20T21:18:11.035Z,100805.91
2022-12-20T21:20:13.755Z,100805.31
2022-12-20T21:22:15.764Z,100808.22
2022-12-20T21:24:17.775Z,100805.72
2022-12-20T21:26:22.129Z,100811.78
2022-12-20T21:28:24.453Z,100807.44
2022-12-20T21:30:26.472Z,100806.47
2022-12-20T21:32:28.827Z,100813.34
2022-12-20T21:34:30.831Z,100809.75
2022-12-20T21:36:32.864Z,100818.44
2022-12-20T21:38:35.320Z,100818.28
2022-12-20T21:40:37.355Z,100822.31
2022-12-20T21:42:39.410Z,100828.38
2022-12-20T21:44:41.430Z,100825.03
2022-12-20T21:46:43.503Z,100817.22
2022-12-20T21:48:45.675Z,100816.47
2022-12-20T21:50:59.036Z,100828.38
2022-12-20T21:53:01.016Z,100824.97
2022-12-20T21:55:03.206Z,100832.75
2022-12-20T21:57:05.199Z,100826.72
2022-12-20T21:59:07.657Z,100824.81
2022-12-20T22:01:09.768Z,100824.91
2022-12-20T22:03:12.191Z,100819.50
2022-12-20T22:05:15.330Z,100820.25
2022-12-20T22:07:17.370Z,100821.25
2022-12-20T22:09:19.317Z,100824.53
2022-12-20T22:11:21.276Z,100816.91
2022-12-20T22:13:23.217Z,100819.34
2022-12-20T22:15:25.354Z,100821.75
2022-12-20T22:17:27.941Z,100829.38
2022-12-20T22:19:29.907Z,100824.38
2022-12-20T22:21:34.074Z,100824.16
2022-12-20T22:23:37.687Z,100820.91
2022-12-20T22:25:40.115Z,100814.03
2022-12-20T22:27:42.291Z,100816.53
2022-12-20T22:29:44.701Z,100822.75
2022-12-20T22:31:46.829Z,100816.59
2022-12-20T22:33:49.757Z,100822.38
2022-12-20T22:35:53.887Z,100824.88
2022-12-20T22:37:56.009Z,100824.22
2022-12-20T22:39:58.181Z,100819.94
2022-12-20T22:42:00.305Z,100820.00
2022-12-20T22:44:03.210Z,100810.63
2022-12-20T22:46:05.952Z,100808.94
2022-12-20T22:48:08.261Z,100806.47
2022-12-20T22:50:11.041Z,100810.91
2022-12-20T22:52:13.065Z,100811.53
2022-12-20T22:54:15.120Z,100812.59
2022-12-20T22:56:19.970Z,100809.91
2022-12-20T22:58:22.453Z,100811.63
2022-12-20T23:00:25.638Z,100812.56
2022-12-20T23:02:28.333Z,100809.94
2022-12-20T23:04:30.845Z,100809.19
2022-12-20T23:06:32.925Z,100804.97
2022-12-20T23:08:36.765Z,100816.16
2022-12-20T23:10:43.612Z,100812.53
2022-12-20T23:12:48.803Z,100808.22
2022-12-20T23:14:58.733Z,100804.84
2022-12-20T23:17:05.157Z,100808.28
2022-12-20T23:19:07.267Z,100812.84
2022-12-20T23:21:12.564Z,100814.53
2022-12-20T23:23:14.692Z,100810.28
2022-12-20T23:25:20.143Z,100807.72
2022-12-20T23:27:22.371Z,100803.44
2022-12-20T23:29:24.603Z,100803.56
2022-12-20T23:31:26.689Z,100796.66
2022-12-20T23:33:28.795Z,100796.56
2022-12-20T23:35:30.714Z,100795.81
2022-12-20T23:37:32.802Z,100788.00
2022-12-20T23:39:34.785Z,100798.19
2022-12-20T23:41:36.713Z,100798.78
2022-12-20T23:43:38.985Z,100800.69
2022-12-20T23:45:41.075Z,100798.88
2022-12-20T23:47:43.042Z,100804.09
2022-12-20T23:49:44.987Z,100799.13
2022-12-20T23:51:47.000Z,100798.97
2022-12-20T23:53:52.195Z,100797.41
2022-12-20T23:55:59.753Z,100793.94
2022-12-20T23:58:01.874Z,100797.66
